• Join FlightAware (Why Join?)
  • Login
  • US Flag 
12:48PM EDT


 

Airport Tracker/Info


-or-


 

Live Flight TrackerFlight Track Log ✈ AWE3417 ✈ 29-Apr-2013 ✈ KDCA - KCMH

Flight Track Log - Related Links

Times and Time Zones

All times are in EDT time to prevent confusion due to time zone crossing. See the AWE3417 flight status page for this flight to view local times or setup timezone preferences in your user account.

Time Position Orientation Groundspeed Altitude Reporting Facility
EDT Latitude Longitude Course Direction KTS MPH feet Rate Location/Type
07:45PM 38.7833 -77.0167 274° West 212 244 3,700  Level Potomac TRACON
07:46PM 38.7500 -77.0833 237° Southwest 287 330 5,500 2,700 Climbing Potomac TRACON
07:47PM 38.9333 -77.5004 270° West  Level FlightAware Approximate
07:47PM 38.7667 -77.1667 284° West 286 329 8,900  Level Potomac TRACON
07:48PM 38.9333 -77.6257 270° West  Level FlightAware Approximate
07:49PM 38.9333 -77.7509 270° West  Level FlightAware Approximate
07:49PM 38.8378 -77.3719 294° West 344 396 13,400  Level Washington Center
07:50PM 38.9389 -77.8760 274° West  Level FlightAware Approximate
07:50PM 38.8756 -77.4875 293° West 357 411 16,100  Level Washington Center
07:51PM 38.9451 -78.0010 274° West  Level FlightAware Approximate
07:51PM 38.9133 -77.5953 294° West 362 417 17,000  Level Washington Center
07:52PM 38.9422 -77.7375 285° West 372 428 18,700 1,800 Climbing Washington Center
07:53PM 38.9461 -77.8603 272° West 377 434 20,700 1,800 Climbing Washington Center
07:54PM 38.9539 -78.0019 274° West 389 448 22,300 1,620 Climbing Washington Center
07:55PM 38.9592 -78.1464 273° West 402 463 24,000 1,680 Climbing Washington Center
07:56PM 38.9622 -78.2986 272° West 415 478 25,700 1,440 Climbing Washington Center
07:57PM 38.9669 -78.4483 272° West 421 484 27,000 1,140 Climbing Washington Center
07:58PM 38.9736 -78.6033 273° West 427 491 28,000 480 Climbing Washington Center
07:59PM 38.9778 -78.7639 272° West 443 510 28,000  Level Washington Center
08:00PM 38.9819 -78.9217 272° West 443 510 28,000  Level Washington Center
08:01PM 38.9858 -79.0794 272° West 443 510 28,000  Level Washington Center
08:02PM 38.9894 -79.2397 272° West 443 510 28,000  Level Washington Center
08:03PM 38.9969 -79.4003 273° West 443 510 28,000  Level Washington Center
08:04PM 38.9981 -79.5581 271° West 443 510 28,000  Level Washington Center
08:05PM 39.0003 -79.7425 271° West 455 524 28,000  Level Washington Center
08:07PM 39.0039 -80.1153 271° West 455 524 28,000  Level Indianapolis Center
08:08PM 39.0061 -80.2781 271° West 459 528 28,000  Level Indianapolis Center
08:09PM 39.0086 -80.4403 271° West 455 524 28,000  Level Indianapolis Center
08:10PM 39.0339 -80.5975 282° West 455 524 28,000  Level Indianapolis Center
08:12PM 39.0922 -80.7756 293° West 453 521 28,000  Level Indianapolis Center
08:13PM 39.1411 -80.9233 293° West 453 521 28,000  Level Indianapolis Center
08:14PM 39.1894 -81.0728 293° West 455 524 28,000  Level Indianapolis Center
08:15PM 39.2383 -81.2228 293° West 456 525 28,000 -600 Level Indianapolis Center
08:16PM 39.2853 -81.3697 292° West 448 516 26,800 -1,740 Descending Indianapolis Center
08:17PM 39.3311 -81.5147 292° West 440 506 24,500 -2,460 Descending Indianapolis Center
08:18PM 39.3839 -81.6833 292° West 425 489 21,800 -2,400 Descending Indianapolis Center
08:19PM 39.4258 -81.8189 292° West 412 474 19,600 -2,100 Descending Indianapolis Center
08:20PM 39.4675 -81.9492 293° West 396 456 17,600 -2,100 Descending Indianapolis Center
08:20PM 39.4967 -82.0508 290° West 382 440 15,900 -1,980 Descending Indianapolis Center
08:21PM 39.5072 -82.0772 297° West 385 443 15,600 -2,100 Descending Indianapolis Center
08:22PM 39.5422 -82.1986 291° West 379 436 13,600 -2,100 Descending Indianapolis Center
08:23PM 39.5806 -82.3217 292° West 368 423 11,700 -1,320 Descending Indianapolis Center
08:24PM 39.6392 -82.4197 308° West 357 411 11,000 -660 Descending Indianapolis Center
08:25PM 39.7061 -82.4864 323° Northwest 290 334 10,400 -1,500 Descending Indianapolis Center
08:26PM 39.7714 -82.5450 325° Northwest 276 318 8,000 -2,400 Descending Indianapolis Center
08:27PM 39.8383 -82.6092 324° Northwest 277 319 5,600 -2,340 Descending Indianapolis Center
08:27PM 39.8508 -82.6183 331° Northwest 278 320 5,100 -1,740 Descending Indianapolis Center
08:28PM 39.9014 -82.6678 323° Northwest 278 320 3,900 -1,500 Descending Indianapolis Center
08:28PM 39.9144 -82.6753 336° Northwest 278 320 3,600 -1,380 Descending Indianapolis Center
08:29PM 39.9586 -82.7203 322° Northwest 260 299 2,500 -1,200 Descending Indianapolis Center
08:29PM 39.9722 -82.7308 329° Northwest 268 308 2,400 -240 Descending Indianapolis Center
08:30PM 39.9947 -82.7758 303° West 177 204 2,300 -300 Descending Indianapolis Center
08:30PM 39.9958 -82.7881 277° West 213 245 2,100 -720 Descending Indianapolis Center